Time;durP1;ratioP1;P1;durP2;ratioP2;P2;SDS_P1;SDS_P2;PMS_P1;PMS_P2;Temp;Humidity;BMP_temperature;BMP_pressure;BME280_temperature;BME280_humidity;BME280_pressure;Samples;Min_cycle;Max_cycle;Signal;HPM_P1;HPM_P2
2022/10/08 00:01:28;;;;;;;0.30;0.30;;;17.90;80.60;;;;;;4193505;28;20342;-69
2022/10/08 00:04:11;;;;;;;0.00;0.00;;;17.90;80.70;;;;;;4193627;28;20146;-69
2022/10/08 00:06:53;;;;;;;0.00;0.00;;;17.90;80.80;;;;;;4192100;28;20395;-69
2022/10/08 00:09:35;;;;;;;0.00;0.00;;;17.90;80.90;;;;;;4188619;28;20175;-69
2022/10/08 00:12:16;;;;;;;0.88;0.38;;;17.90;81.00;;;;;;4192600;28;20423;-69
2022/10/08 00:14:57;;;;;;;0.00;0.00;;;17.90;81.10;;;;;;4193323;28;20117;-68
2022/10/08 00:17:38;;;;;;;0.03;0.03;;;17.90;81.10;;;;;;4193029;28;20090;-64
2022/10/08 00:20:20;;;;;;;0.30;0.30;;;17.90;81.20;;;;;;4184908;28;20048;-64
2022/10/08 00:23:01;;;;;;;0.00;0.00;;;17.90;81.20;;;;;;4192399;28;20118;-63
2022/10/08 00:25:45;;;;;;;0.00;0.00;;;17.90;81.20;;;;;;4193136;28;20052;-64
2022/10/08 00:28:26;;;;;;;0.00;0.00;;;17.90;81.20;;;;;;4191020;28;20185;-68
2022/10/08 00:31:09;;;;;;;0.00;0.00;;;17.90;81.30;;;;;;4192629;28;20071;-68
2022/10/08 00:33:51;;;;;;;0.00;0.00;;;17.90;81.40;;;;;;4193259;28;20051;-69
2022/10/08 00:36:33;;;;;;;0.00;0.00;;;17.90;81.40;;;;;;4176445;28;20195;-68
2022/10/08 00:39:17;;;;;;;0.20;0.20;;;17.90;81.50;;;;;;4159395;28;20084;-63
2022/10/08 00:41:59;;;;;;;0.00;0.00;;;17.90;81.50;;;;;;4176222;28;20067;-64
2022/10/08 00:44:53;;;;;;;0.00;0.00;;;17.80;82.40;;;;;;4175998;28;20055;-64
2022/10/08 00:47:42;;;;;;;0.00;0.00;;;17.90;81.60;;;;;;4180095;28;20102;-64
2022/10/08 00:50:30;;;;;;;0.05;0.05;;;17.80;81.50;;;;;;4193612;28;20051;-69
2022/10/08 00:53:11;;;;;;;0.00;0.00;;;17.80;81.60;;;;;;4192200;28;20182;-69
2022/10/08 00:55:52;;;;;;;0.00;0.00;;;17.90;81.80;;;;;;4186795;28;20178;-68
2022/10/08 00:58:35;;;;;;;0.00;0.00;;;17.80;81.90;;;;;;4174965;28;20415;-69
2022/10/08 01:01:16;;;;;;;0.00;0.00;;;17.80;81.90;;;;;;4151908;28;20047;-69
2022/10/08 01:04:01;;;;;;;0.00;0.00;;;17.80;81.70;;;;;;4175120;28;20118;-64
2022/10/08 01:06:49;;;;;;;0.00;0.00;;;17.80;81.60;;;;;;4175448;28;20431;-64
2022/10/08 01:09:35;;;;;;;0.10;0.10;;;17.80;81.70;;;;;;4158746;28;20064;-64
2022/10/08 01:12:32;;;;;;;0.00;0.00;;;17.80;81.80;;;;;;4158839;28;20056;-64
2022/10/08 01:15:22;;;;;;;0.00;0.00;;;17.80;81.70;;;;;;4174493;28;20047;-63
2022/10/08 01:18:13;;;;;;;0.00;0.00;;;17.80;81.70;;;;;;4183747;28;20055;-63
2022/10/08 01:21:01;;;;;;;0.00;0.00;;;17.80;81.80;;;;;;4191068;28;20063;-65
2022/10/08 01:24:03;;;;;;;0.00;0.00;;;17.80;81.90;;;;;;4192338;28;20047;-63
2022/10/08 01:26:57;;;;;;;0.52;0.52;;;17.80;81.90;;;;;;4191905;28;20482;-64
2022/10/08 01:29:42;;;;;;;0.13;0.13;;;17.80;82.80;;;;;;4175403;28;20056;-64
2022/10/08 01:32:37;;;;;;;0.00;0.00;;;17.80;81.90;;;;;;4175926;28;20048;-69
2022/10/08 01:35:24;;;;;;;0.00;0.00;;;17.80;82.00;;;;;;4178151;28;20055;-69
2022/10/08 01:38:06;;;;;;;0.00;0.00;;;17.80;81.90;;;;;;4175330;28;20047;-69
2022/10/08 01:40:51;;;;;;;0.00;0.00;;;17.80;81.90;;;;;;4175396;28;20056;-69
2022/10/08 01:43:35;;;;;;;0.00;0.00;;;17.80;81.90;;;;;;4175891;28;20056;-69
2022/10/08 01:46:22;;;;;;;0.00;0.00;;;17.80;81.90;;;;;;4187011;28;20375;-68
2022/10/08 01:49:06;;;;;;;0.00;0.00;;;17.80;81.90;;;;;;4191851;28;20051;-69
2022/10/08 01:51:51;;;;;;;0.00;0.00;;;17.80;82.80;;;;;;4191663;28;20047;-69
2022/10/08 01:54:33;;;;;;;0.00;0.00;;;17.80;82.00;;;;;;4192213;28;20187;-69
2022/10/08 01:57:14;;;;;;;0.00;0.00;;;17.80;82.00;;;;;;4175238;28;20103;-69
2022/10/08 02:00:01;;;;;;;0.20;0.20;;;17.80;82.90;;;;;;4175575;28;20056;-63
2022/10/08 02:02:54;;;;;;;0.00;0.00;;;17.80;82.10;;;;;;4157020;28;20075;-63
2022/10/08 02:05:39;;;;;;;0.00;0.00;;;17.80;82.20;;;;;;4170354;28;20506;-63
2022/10/08 02:08:23;;;;;;;0.00;0.00;;;17.80;82.10;;;;;;4174256;28;20122;-63
2022/10/08 02:11:04;;;;;;;0.00;0.00;;;17.80;82.20;;;;;;4191793;28;20137;-64
2022/10/08 02:13:45;;;;;;;0.10;0.10;;;17.80;82.20;;;;;;4175254;28;20431;-64
2022/10/08 02:16:29;;;;;;;0.00;0.00;;;17.80;82.20;;;;;;4189695;28;20051;-63
2022/10/08 02:19:19;;;;;;;0.00;0.00;;;17.80;82.20;;;;;;4191701;28;20117;-63
2022/10/08 02:22:03;;;;;;;0.00;0.00;;;17.80;82.20;;;;;;4192017;28;20063;-63
2022/10/08 02:24:51;;;;;;;0.15;0.15;;;17.80;82.30;;;;;;4190524;28;20059;-63
2022/10/08 02:27:41;;;;;;;0.00;0.00;;;17.80;82.20;;;;;;4191675;28;20077;-63
2022/10/08 02:30:23;;;;;;;0.00;0.00;;;17.80;82.20;;;;;;4190909;28;20050;-63
2022/10/08 02:33:10;;;;;;;0.00;0.00;;;17.70;82.20;;;;;;4191759;28;20055;-63
2022/10/08 02:35:57;;;;;;;0.00;0.00;;;17.70;82.40;;;;;;4191527;28;20048;-69
2022/10/08 02:38:42;;;;;;;0.00;0.00;;;17.70;83.30;;;;;;4191683;28;20044;-64
2022/10/08 02:41:29;;;;;;;0.00;0.00;;;17.80;82.50;;;;;;4191496;28;20059;-70
2022/10/08 02:44:16;;;;;;;0.00;0.00;;;17.70;82.50;;;;;;4191523;28;20067;-70
2022/10/08 02:47:00;;;;;;;0.00;0.00;;;17.70;82.60;;;;;;4190485;28;20125;-69
2022/10/08 02:49:45;;;;;;;0.00;0.00;;;17.70;82.70;;;;;;4191358;28;20064;-70
2022/10/08 02:52:30;;;;;;;0.00;0.00;;;17.70;82.70;;;;;;4174115;28;20060;-69
2022/10/08 02:55:18;;;;;;;0.00;0.00;;;17.70;82.70;;;;;;4181783;28;20118;-69
2022/10/08 02:58:03;;;;;;;0.00;0.00;;;17.70;82.70;;;;;;4191299;28;20495;-69
2022/10/08 03:00:49;;;;;;;0.00;0.00;;;17.70;82.70;;;;;;4190166;28;20528;-69
2022/10/08 03:03:34;;;;;;;0.00;0.00;;;17.70;82.80;;;;;;4191127;28;20075;-63
2022/10/08 03:06:17;;;;;;;0.00;0.00;;;17.70;82.80;;;;;;4176970;28;20051;-63
2022/10/08 03:09:01;;;;;;;0.00;0.00;;;17.70;82.80;;;;;;4159131;28;20052;-63
2022/10/08 03:11:43;;;;;;;0.00;0.00;;;17.70;82.80;;;;;;4157674;28;20056;-63
2022/10/08 03:14:25;;;;;;;;;;;17.70;82.70;;;;;;4179184;28;20060;-63
2022/10/08 03:17:07;;;;;;;0.10;0.10;;;17.70;82.80;;;;;;4193481;28;19927;-64
2022/10/08 03:19:48;;;;;;;0.03;0.03;;;17.70;82.80;;;;;;4193797;28;20047;-63
2022/10/08 03:22:30;;;;;;;0.00;0.00;;;17.70;83.00;;;;;;4193792;28;20071;-69
2022/10/08 03:25:12;;;;;;;0.00;0.00;;;17.70;83.00;;;;;;4174227;28;20050;-69
2022/10/08 03:27:53;;;;;;;0.00;0.00;;;17.70;83.00;;;;;;4177073;28;20051;-69
2022/10/08 03:30:34;;;;;;;0.00;0.00;;;17.60;82.90;;;;;;4177161;28;20056;-70
2022/10/08 03:33:15;;;;;;;0.00;0.00;;;17.60;83.10;;;;;;4177095;28;20052;-69
2022/10/08 03:35:58;;;;;;;0.00;0.00;;;17.70;83.10;;;;;;4176963;28;20509;-69
2022/10/08 03:38:38;;;;;;;0.00;0.00;;;17.60;83.10;;;;;;4177029;28;20199;-69
2022/10/08 03:41:21;;;;;;;0.00;0.00;;;17.70;84.00;;;;;;4176803;28;20130;-69
2022/10/08 03:44:01;;;;;;;0.00;0.00;;;17.60;83.10;;;;;;4177918;28;20059;-69
2022/10/08 03:46:42;;;;;;;0.00;0.00;;;17.60;83.10;;;;;;4175834;28;20514;-68
2022/10/08 03:49:23;;;;;;;0.00;0.00;;;17.60;83.20;;;;;;4177342;28;20059;-69
2022/10/08 03:52:04;;;;;;;0.00;0.00;;;17.60;84.10;;;;;;4193619;28;20811;-69
2022/10/08 03:54:45;;;;;;;0.00;0.00;;;17.60;83.40;;;;;;4169307;28;20174;-70
2022/10/08 03:57:27;;;;;;;0.00;0.00;;;17.60;83.30;;;;;;4175976;28;20063;-69
2022/10/08 04:00:09;;;;;;;0.52;0.52;;;17.60;83.30;;;;;;4193392;28;20052;-69
2022/10/08 04:02:50;;;;;;;0.00;0.00;;;17.60;83.40;;;;;;4189856;28;20541;-63
2022/10/08 04:05:32;;;;;;;0.00;0.00;;;17.60;83.30;;;;;;4193019;28;20384;-63
2022/10/08 04:08:12;;;;;;;0.00;0.00;;;17.60;83.40;;;;;;4176791;28;20064;-63
2022/10/08 04:10:53;;;;;;;0.00;0.00;;;17.60;83.30;;;;;;4193142;28;20093;-63
2022/10/08 04:13:36;;;;;;;0.00;0.00;;;17.60;83.40;;;;;;4171693;28;20197;-64
2022/10/08 04:16:18;;;;;;;0.00;0.00;;;17.60;83.40;;;;;;4193615;28;20054;-63
2022/10/08 04:18:59;;;;;;;6.35;2.90;;;17.60;83.40;;;;;;4193951;28;20047;-64
2022/10/08 04:21:40;;;;;;;0.00;0.00;;;17.60;84.30;;;;;;4193853;28;20501;-64
2022/10/08 04:24:21;;;;;;;0.00;0.00;;;17.60;83.40;;;;;;4191600;28;20047;-64
2022/10/08 04:27:01;;;;;;;0.10;0.10;;;17.60;83.50;;;;;;4193555;28;20120;-64
2022/10/08 04:29:44;;;;;;;0.10;0.10;;;17.60;83.50;;;;;;4177096;28;20052;-64
2022/10/08 04:32:25;;;;;;;0.00;0.00;;;17.50;83.60;;;;;;4161201;28;20052;-64
2022/10/08 04:35:07;;;;;;;0.00;0.00;;;17.60;83.60;;;;;;4192575;28;20119;-63
2022/10/08 04:37:47;;;;;;;0.00;0.00;;;17.50;83.60;;;;;;4192454;28;20122;-64
2022/10/08 04:40:28;;;;;;;0.00;0.00;;;17.50;83.60;;;;;;4175904;28;20194;-63
2022/10/08 04:43:09;;;;;;;0.10;0.10;;;17.60;83.70;;;;;;4175291;28;20503;-63
2022/10/08 04:45:52;;;;;;;0.00;0.00;;;17.50;83.60;;;;;;4174374;28;20171;-64
2022/10/08 04:48:33;;;;;;;0.55;0.55;;;17.50;83.70;;;;;;4192289;28;20129;-64
2022/10/08 04:51:14;;;;;;;0.00;0.00;;;17.50;83.60;;;;;;4176125;28;20052;-64
2022/10/08 04:53:57;;;;;;;4.13;0.50;;;17.50;83.70;;;;;;4175446;28;20072;-64
2022/10/08 04:56:37;;;;;;;12.85;2.75;;;17.50;83.70;;;;;;4175716;28;20047;-64
2022/10/08 04:59:18;;;;;;;0.32;0.32;;;17.50;83.80;;;;;;4192909;28;20497;-63
2022/10/08 05:02:01;;;;;;;0.00;0.00;;;17.50;83.90;;;;;;4175287;28;20056;-63
2022/10/08 05:04:41;;;;;;;0.10;0.10;;;17.50;83.90;;;;;;4176126;28;20055;-68
2022/10/08 05:07:23;;;;;;;0.00;0.00;;;17.50;83.90;;;;;;4191764;28;20540;-68
2022/10/08 05:10:04;;;;;;;0.00;0.00;;;17.50;83.90;;;;;;4191933;28;20161;-68
2022/10/08 05:12:45;;;;;;;0.00;0.00;;;17.50;84.80;;;;;;4192624;28;20429;-67
2022/10/08 05:15:26;;;;;;;0.00;0.00;;;17.50;84.00;;;;;;4175013;28;20059;-68
2022/10/08 05:18:08;;;;;;;0.00;0.00;;;17.50;84.00;;;;;;4174705;28;20067;-68
2022/10/08 05:20:49;;;;;;;0.10;0.10;;;17.50;84.00;;;;;;4168656;28;20104;-68
2022/10/08 05:23:30;;;;;;;0.20;0.20;;;17.50;84.10;;;;;;4179421;28;20059;-68
2022/10/08 05:26:13;;;;;;;0.00;0.00;;;17.50;84.90;;;;;;4191852;28;20071;-69
2022/10/08 05:28:55;;;;;;;0.00;0.00;;;17.50;84.10;;;;;;4192014;28;20179;-71
2022/10/08 05:31:38;;;;;;;0.00;0.00;;;17.50;84.00;;;;;;4192661;28;20161;-69
2022/10/08 05:34:20;;;;;;;0.00;0.00;;;17.50;84.10;;;;;;4192038;28;20048;-70
2022/10/08 05:37:01;;;;;;;0.10;0.10;;;17.50;84.50;;;;;;4191963;28;20051;-68
2022/10/08 05:39:42;;;;;;;0.00;0.00;;;17.50;85.30;;;;;;4191790;28;20141;-67
2022/10/08 05:42:23;;;;;;;0.00;0.00;;;17.50;85.10;;;;;;4191982;28;20055;-68
2022/10/08 05:45:04;;;;;;;0.15;0.15;;;17.50;85.00;;;;;;4191628;28;20457;-70
2022/10/08 05:47:47;;;;;;;0.15;0.15;;;17.50;84.80;;;;;;4191228;28;20036;-70
2022/10/08 05:50:29;;;;;;;0.00;0.00;;;17.50;84.80;;;;;;4174021;28;20131;-71
2022/10/08 05:53:10;;;;;;;0.00;0.00;;;17.50;84.90;;;;;;4179046;28;20544;-70
2022/10/08 05:56:00;;;;;;;0.00;0.00;;;17.50;85.00;;;;;;4175409;28;20059;-70
2022/10/08 05:58:41;;;;;;;0.00;0.00;;;17.50;85.00;;;;;;4175458;28;20487;-64
2022/10/08 06:01:24;;;;;;;0.00;0.00;;;17.50;84.70;;;;;;4158506;28;20665;-64
2022/10/08 06:04:05;;;;;;;0.00;0.00;;;17.50;84.90;;;;;;4161150;28;20389;-64
2022/10/08 06:06:50;;;;;;;0.00;0.00;;;17.40;84.70;;;;;;4174663;28;20060;-64
2022/10/08 06:09:31;;;;;;;0.00;0.00;;;17.40;84.60;;;;;;4191222;28;20052;-65
2022/10/08 06:12:12;;;;;;;0.00;0.00;;;17.40;84.80;;;;;;4174715;28;20490;-64
2022/10/08 06:14:53;;;;;;;0.50;0.50;;;17.40;84.80;;;;;;4177229;28;20482;-65
2022/10/08 06:17:34;;;;;;;0.63;0.63;;;17.40;84.70;;;;;;4190347;28;20048;-64
2022/10/08 06:20:15;;;;;;;0.00;0.00;;;17.40;84.80;;;;;;4191380;28;20584;-64
2022/10/08 06:22:57;;;;;;;0.17;0.17;;;17.40;84.90;;;;;;4191399;28;20409;-65
2022/10/08 06:25:37;;;;;;;0.25;0.25;;;17.40;84.80;;;;;;4191751;28;20355;-64
2022/10/08 06:28:18;;;;;;;0.45;0.45;;;17.40;84.90;;;;;;4190895;28;20174;-64
2022/10/08 06:30:59;;;;;;;0.00;0.00;;;17.40;85.00;;;;;;4169512;28;20052;-65
2022/10/08 06:33:40;;;;;;;0.20;0.20;;;17.40;85.00;;;;;;4174098;28;20483;-64
2022/10/08 06:36:23;;;;;;;0.00;0.00;;;17.30;85.00;;;;;;4173387;28;20097;-65
2022/10/08 06:39:09;;;;;;;0.20;0.20;;;17.40;85.00;;;;;;4173808;28;20052;-64
2022/10/08 06:41:50;;;;;;;0.00;0.00;;;17.40;85.00;;;;;;4190252;28;20047;-65
2022/10/08 06:44:31;;;;;;;0.00;0.00;;;17.30;84.90;;;;;;4170021;28;20056;-64
2022/10/08 06:47:12;;;;;;;0.00;0.00;;;17.30;84.90;;;;;;4157558;28;20049;-65
2022/10/08 06:49:53;;;;;;;0.00;0.00;;;17.30;84.90;;;;;;4164563;28;20067;-64
2022/10/08 06:52:34;;;;;;;0.00;0.00;;;17.30;85.00;;;;;;4192351;28;20056;-72
2022/10/08 06:55:16;;;;;;;0.38;0.32;;;17.30;85.00;;;;;;4194049;28;20055;-67
2022/10/08 06:57:57;;;;;;;0.00;0.00;;;17.30;85.00;;;;;;4193824;28;20047;-66
2022/10/08 07:00:38;;;;;;;0.00;0.00;;;17.30;84.90;;;;;;4181302;28;20052;-66
2022/10/08 07:03:19;;;;;;;1.05;1.02;;;17.30;84.90;;;;;;4193750;28;20506;-66
2022/10/08 07:06:01;;;;;;;0.00;0.00;;;17.30;84.90;;;;;;4193589;28;20126;-66
2022/10/08 07:08:41;;;;;;;0.20;0.20;;;17.30;84.80;;;;;;4193639;28;20137;-66
2022/10/08 07:11:25;;;;;;;0.00;0.00;;;17.30;84.70;;;;;;4175141;28;20183;-65
2022/10/08 07:14:06;;;;;;;0.00;0.00;;;17.30;84.70;;;;;;4176640;28;20538;-66
2022/10/08 07:16:47;;;;;;;0.00;0.00;;;17.30;84.60;;;;;;4190671;28;20063;-66
2022/10/08 07:19:28;;;;;;;0.10;0.10;;;17.30;84.50;;;;;;4177034;28;20141;-66
2022/10/08 07:22:09;;;;;;;0.30;0.30;;;17.20;84.50;;;;;;4176657;28;20064;-66
2022/10/08 07:24:50;;;;;;;0.75;0.73;;;17.30;85.50;;;;;;4160351;28;20053;-66
2022/10/08 07:27:32;;;;;;;0.00;0.00;;;17.20;84.60;;;;;;4177130;28;20130;-66
2022/10/08 07:30:13;;;;;;;0.10;0.10;;;17.20;84.60;;;;;;4183056;28;20087;-67
2022/10/08 07:32:54;;;;;;;0.00;0.00;;;17.20;84.60;;;;;;4176050;28;20059;-66
2022/10/08 07:35:36;;;;;;;0.08;0.08;;;17.20;84.60;;;;;;4193724;28;20059;-67
2022/10/08 07:38:18;;;;;;;0.43;0.43;;;17.20;84.60;;;;;;4176671;28;20052;-67
2022/10/08 07:40:59;;;;;;;0.00;0.00;;;17.20;84.50;;;;;;4175525;28;20052;-66
2022/10/08 07:43:42;;;;;;;0.00;0.00;;;17.20;84.50;;;;;;4179554;28;20051;-69
2022/10/08 07:46:22;;;;;;;0.00;0.00;;;17.20;84.50;;;;;;4193960;28;20051;-66
2022/10/08 07:49:04;;;;;;;0.00;0.00;;;17.30;85.30;;;;;;4180089;28;20534;-68
2022/10/08 07:51:45;;;;;;;0.00;0.00;;;17.30;84.80;;;;;;4192838;28;20051;-69
2022/10/08 07:54:26;;;;;;;0.00;0.00;;;17.30;84.60;;;;;;4175900;28;20132;-67
2022/10/08 07:57:07;;;;;;;0.00;0.00;;;17.40;84.60;;;;;;4176613;28;20056;-66
2022/10/08 07:59:49;;;;;;;0.10;0.10;;;17.40;84.30;;;;;;4175730;28;20179;-66
2022/10/08 08:02:30;;;;;;;0.55;0.55;;;17.40;84.20;;;;;;4176386;28;20056;-66
2022/10/08 08:05:11;;;;;;;0.00;0.00;;;17.40;83.90;;;;;;4159586;28;20455;-67
2022/10/08 08:07:52;;;;;;;0.00;0.00;;;17.40;84.70;;;;;;4176789;28;20549;-66
2022/10/08 08:10:33;;;;;;;0.00;0.00;;;17.40;83.80;;;;;;4163968;28;20124;-66
2022/10/08 08:13:13;;;;;;;0.00;0.00;;;17.40;83.70;;;;;;4176434;28;20052;-66
2022/10/08 08:16:00;;;;;;;0.00;0.00;;;17.40;83.90;;;;;;4159497;28;20057;-66
2022/10/08 08:18:43;;;;;;;0.00;0.00;;;17.40;83.80;;;;;;4176486;28;20052;-67
2022/10/08 08:21:26;;;;;;;0.00;0.00;;;17.40;84.00;;;;;;4180468;28;20047;-66
2022/10/08 08:24:09;;;;;;;0.10;0.10;;;17.50;84.20;;;;;;4192689;28;20051;-66
2022/10/08 08:26:50;;;;;;;0.00;0.00;;;17.50;84.10;;;;;;4192931;28;20044;-64
2022/10/08 08:29:34;;;;;;;0.00;0.00;;;17.50;84.00;;;;;;4176405;28;20048;-64
2022/10/08 08:32:16;;;;;;;0.00;0.00;;;17.50;83.80;;;;;;4159212;28;20056;-64
2022/10/08 08:34:57;;;;;;;11.60;4.80;;;17.50;83.60;;;;;;4175975;28;20075;-65
2022/10/08 08:37:38;;;;;;;0.00;0.00;;;17.50;83.40;;;;;;4175265;28;20474;-65
2022/10/08 08:40:18;;;;;;;0.00;0.00;;;17.50;83.40;;;;;;4175632;28;20048;-64
2022/10/08 08:42:59;;;;;;;0.00;0.00;;;17.50;83.30;;;;;;4175496;28;20506;-64
2022/10/08 08:45:42;;;;;;;0.00;0.00;;;17.50;83.30;;;;;;4192203;28;20532;-64
2022/10/08 08:48:31;;;;;;;0.00;0.00;;;17.50;83.30;;;;;;4176158;28;20299;-65
2022/10/08 08:51:13;;;;;;;0.00;0.00;;;17.50;84.00;;;;;;4187782;28;20047;-64
2022/10/08 08:53:54;;;;;;;0.00;0.00;;;17.60;83.30;;;;;;4193010;28;20059;-64
2022/10/08 08:56:35;;;;;;;0.00;0.00;;;17.60;83.30;;;;;;4192172;28;20055;-64
2022/10/08 08:59:26;;;;;;;0.00;0.00;;;17.60;83.10;;;;;;4189927;28;20179;-65
2022/10/08 09:02:18;;;;;;;0.43;0.43;;;17.60;82.80;;;;;;4175608;28;20044;-64
2022/10/08 09:05:03;;;;;;;0.00;0.00;;;17.60;82.60;;;;;;4190759;28;20340;-64
2022/10/08 09:07:48;;;;;;;0.00;0.00;;;17.60;83.40;;;;;;4192729;28;20060;-65
2022/10/08 09:10:36;;;;;;;0.00;0.00;;;17.60;83.40;;;;;;4191819;28;20071;-65
2022/10/08 09:13:21;;;;;;;0.00;0.00;;;17.60;82.60;;;;;;4192379;28;20082;-64
2022/10/08 09:16:02;;;;;;;0.00;0.00;;;17.60;82.60;;;;;;4181875;28;20063;-67
2022/10/08 09:18:45;;;;;;;0.00;0.00;;;17.60;82.80;;;;;;4175259;28;20055;-67
2022/10/08 09:21:30;;;;;;;1.08;1.08;;;17.60;83.00;;;;;;4162477;28;20076;-64
2022/10/08 09:24:12;;;;;;;0.00;0.00;;;17.60;83.10;;;;;;4191788;28;20108;-65
2022/10/08 09:26:53;;;;;;;;;;;17.60;83.20;;;;;;4192358;28;20055;-65
2022/10/08 09:29:34;;;;;;;0.10;0.10;;;17.60;83.10;;;;;;4192178;28;19931;-65
2022/10/08 09:32:17;;;;;;;0.00;0.00;;;17.70;83.10;;;;;;4191539;28;20058;-65
2022/10/08 09:34:58;;;;;;;0.00;0.00;;;17.70;83.00;;;;;;4177662;28;20174;-65
2022/10/08 09:37:45;;;;;;;1.10;1.10;;;17.70;83.00;;;;;;4171363;28;20044;-66
2022/10/08 09:40:27;;;;;;;0.00;0.00;;;17.80;82.80;;;;;;4175158;28;20126;-64
2022/10/08 09:43:12;;;;;;;;;;;17.80;82.70;;;;;;4174909;28;20070;-64
2022/10/08 09:45:53;;;;;;;1.23;1.23;;;17.80;82.70;;;;;;4179271;28;19999;-64
2022/10/08 09:48:34;;;;;;;0.00;0.00;;;17.80;82.70;;;;;;4174787;28;20098;-65
2022/10/08 09:51:17;;;;;;;0.00;0.00;;;17.80;82.60;;;;;;4187306;28;20407;-69
2022/10/08 09:54:00;;;;;;;0.00;0.00;;;17.80;82.60;;;;;;4191999;28;20397;-68
2022/10/08 09:56:41;;;;;;;0.15;0.15;;;17.90;82.50;;;;;;4188906;28;20577;-68
2022/10/08 09:59:26;;;;;;;0.00;0.00;;;17.90;82.40;;;;;;4191503;28;20098;-64
2022/10/08 10:02:26;;;;;;;0.00;0.00;;;17.90;82.10;;;;;;4173746;28;20103;-65
2022/10/08 10:05:21;;;;;;;0.00;0.00;;;17.90;82.00;;;;;;4182237;28;20051;-65
2022/10/08 10:08:03;;;;;;;0.00;0.00;;;17.90;81.70;;;;;;4189404;28;20981;-65
2022/10/08 10:10:47;;;;;;;0.00;0.00;;;17.80;81.30;;;;;;4190625;28;20157;-65
2022/10/08 10:13:36;;;;;;;0.00;0.00;;;17.80;81.30;;;;;;4183656;28;20517;-68
2022/10/08 10:16:21;;;;;;;0.00;0.00;;;17.80;81.30;;;;;;4191641;28;20051;-67
2022/10/08 10:19:08;;;;;;;0.00;0.00;;;17.80;81.40;;;;;;4189730;28;20125;-67
2022/10/08 10:21:56;;;;;;;0.00;0.00;;;17.80;81.50;;;;;;4191358;28;20058;-68
2022/10/08 10:24:55;;;;;;;0.20;0.20;;;17.80;81.50;;;;;;4188872;28;20047;-68
2022/10/08 10:27:41;;;;;;;0.10;0.10;;;17.80;81.30;;;;;;4168417;28;20109;-68
2022/10/08 10:30:23;;;;;;;0.43;0.43;;;17.80;81.20;;;;;;4166885;28;20154;-68
2022/10/08 10:33:12;;;;;;;0.00;0.00;;;17.80;81.20;;;;;;4178862;28;20106;-68
2022/10/08 10:35:58;;;;;;;0.55;0.55;;;17.80;81.30;;;;;;4175760;28;20048;-65
2022/10/08 10:38:43;;;;;;;0.00;0.00;;;17.80;81.30;;;;;;4190295;28;20052;-66
2022/10/08 10:41:34;;;;;;;0.00;0.00;;;17.80;81.50;;;;;;4190750;28;20043;-65
2022/10/08 10:44:22;;;;;;;0.00;0.00;;;17.80;81.20;;;;;;4185537;28;20055;-65
2022/10/08 10:47:05;;;;;;;0.00;0.00;;;17.90;81.10;;;;;;4174899;28;20060;-65
2022/10/08 10:49:46;;;;;;;0.00;0.00;;;18.00;80.90;;;;;;4173615;28;20186;-65
2022/10/08 10:52:44;;;;;;;0.00;0.00;;;18.00;80.60;;;;;;4145506;28;20052;-64
2022/10/08 10:55:31;;;;;;;0.00;0.00;;;18.10;80.20;;;;;;4174552;28;20130;-64
2022/10/08 10:58:26;;;;;;;0.00;0.00;;;18.20;79.70;;;;;;4180344;28;20431;-65
2022/10/08 11:01:19;;;;;;;0.00;0.00;;;18.10;79.10;;;;;;4184907;28;20047;-65
2022/10/08 11:04:08;;;;;;;0.00;0.00;;;18.20;79.00;;;;;;4191184;28;20606;-65
2022/10/08 11:07:01;;;;;;;0.00;0.00;;;18.20;78.50;;;;;;4201642;28;20512;-65
2022/10/08 11:09:48;;;;;;;0.43;0.43;;;18.20;78.60;;;;;;4174491;28;20047;-66
2022/10/08 11:12:41;;;;;;;0.00;0.00;;;18.20;78.00;;;;;;4175243;28;20055;-65
2022/10/08 11:15:29;;;;;;;0.00;0.00;;;18.20;77.20;;;;;;4176931;28;20055;-66
2022/10/08 11:18:23;;;;;;;0.00;0.00;;;18.10;76.20;;;;;;4144977;28;20097;-65
2022/10/08 11:21:16;;;;;;;0.00;0.00;;;18.20;78.50;;;;;;4183474;28;20067;-66
2022/10/08 11:24:22;;;;;;;0.00;0.00;;;18.20;77.90;;;;;;4190510;28;20051;-66
2022/10/08 11:27:11;;;;;;;0.00;0.00;;;18.10;78.10;;;;;;4178199;28;20730;-65
2022/10/08 11:30:00;;;;;;;0.15;0.15;;;18.10;78.00;;;;;;4190952;28;20182;-65
2022/10/08 11:32:43;;;;;;;0.00;0.00;;;18.10;78.30;;;;;;4190632;28;20501;-65
2022/10/08 11:35:36;;;;;;;0.00;0.00;;;18.10;78.10;;;;;;4191306;28;20051;-65
2022/10/08 11:38:24;;;;;;;0.00;0.00;;;18.10;77.60;;;;;;4176208;28;20059;-65
2022/10/08 11:41:12;;;;;;;0.00;0.00;;;18.10;77.50;;;;;;4175841;28;20175;-65
2022/10/08 11:43:55;;;;;;;0.30;0.30;;;18.10;77.30;;;;;;4177458;28;20054;-64
2022/10/08 11:46:36;;;;;;;0.00;0.00;;;18.10;77.30;;;;;;4186357;28;20171;-65
2022/10/08 11:49:49;;;;;;;0.00;0.00;;;18.10;77.10;;;;;;4188620;28;20183;-66
2022/10/08 11:52:33;;;;;;;0.10;0.10;;;18.10;77.40;;;;;;4192096;28;20060;-65
2022/10/08 11:55:20;;;;;;;0.00;0.00;;;18.10;77.40;;;;;;4196815;28;20414;-66
2022/10/08 11:58:04;;;;;;;0.57;0.57;;;18.10;77.50;;;;;;4187359;28;20505;-66
2022/10/08 12:00:49;;;;;;;0.40;0.40;;;18.00;77.70;;;;;;4176955;28;20059;-66
2022/10/08 12:03:33;;;;;;;0.00;0.00;;;18.00;77.80;;;;;;4178743;28;20072;-66
2022/10/08 12:06:18;;;;;;;0.00;0.00;;;17.90;77.70;;;;;;4193303;28;20121;-66
2022/10/08 12:09:01;;;;;;;0.00;0.00;;;18.00;77.70;;;;;;4193529;28;20056;-66
2022/10/08 12:11:50;;;;;;;0.00;0.00;;;18.00;78.00;;;;;;4193007;28;20055;-66
2022/10/08 12:14:45;;;;;;;0.00;0.00;;;18.00;78.20;;;;;;4192682;28;20059;-66
2022/10/08 12:17:52;;;;;;;0.00;0.00;;;18.00;78.20;;;;;;4192093;28;20055;-66
2022/10/08 12:20:36;;;;;;;0.00;0.00;;;18.00;78.00;;;;;;4192969;28;20059;-72
2022/10/08 12:23:38;;;;;;;0.45;0.45;;;18.00;77.60;;;;;;4193244;28;20125;-73
2022/10/08 12:26:20;;;;;;;0.00;0.00;;;18.00;77.70;;;;;;4177112;28;20052;-72
2022/10/08 12:29:01;;;;;;;0.00;0.00;;;17.90;77.50;;;;;;4177227;28;20052;-72
2022/10/08 12:31:44;;;;;;;0.45;0.45;;;18.00;77.50;;;;;;4176263;28;20078;-72
2022/10/08 12:34:29;;;;;;;0.00;0.00;;;18.00;77.40;;;;;;4169970;28;20211;-72
2022/10/08 12:37:20;;;;;;;0.00;0.00;;;18.10;77.30;;;;;;4172195;28;20043;-64
2022/10/08 12:40:09;;;;;;;0.00;0.00;;;18.10;77.00;;;;;;4183271;28;20254;-71
2022/10/08 12:42:58;;;;;;;0.00;0.00;;;18.20;77.00;;;;;;4194360;28;20097;-71
2022/10/08 12:45:47;;;;;;;1.55;1.30;;;18.20;76.70;;;;;;4177315;28;20048;-70
2022/10/08 12:48:39;;;;;;;0.00;0.00;;;18.20;76.80;;;;;;4164976;28;20060;-69
2022/10/08 12:51:25;;;;;;;0.00;0.00;;;18.30;76.60;;;;;;4176588;28;20056;-69
2022/10/08 12:54:18;;;;;;;0.00;0.00;;;18.30;76.20;;;;;;4168081;28;20191;-69
2022/10/08 12:57:00;;;;;;;1.15;1.10;;;18.30;75.90;;;;;;4191129;28;20190;-69
2022/10/08 12:59:43;;;;;;;0.10;0.10;;;18.30;75.90;;;;;;4193055;28;20474;-69
2022/10/08 13:02:35;;;;;;;0.05;0.05;;;18.40;78.00;;;;;;4192763;28;20047;-69
2022/10/08 13:05:28;;;;;;;0.15;0.15;;;18.30;80.00;;;;;;4174793;28;20056;-68
2022/10/08 13:08:29;;;;;;;0.68;0.68;;;18.30;80.80;;;;;;4175378;28;20055;-69
2022/10/08 13:11:12;;;;;;;0.00;0.00;;;18.40;82.30;;;;;;4160271;28;20064;-68
2022/10/08 13:13:53;;;;;;;1.00;1.00;;;18.30;82.30;;;;;;4184740;28;20047;-63
2022/10/08 13:16:47;;;;;;;0.00;0.00;;;18.30;82.10;;;;;;4174723;28;20056;-63
2022/10/08 13:19:31;;;;;;;2.63;2.05;;;18.40;80.50;;;;;;4176052;28;20491;-64
2022/10/08 13:22:24;;;;;;;0.00;0.00;;;18.30;79.70;;;;;;4175772;28;20518;-64
2022/10/08 13:25:06;;;;;;;9.38;2.20;;;18.40;79.30;;;;;;4190778;28;20482;-70
2022/10/08 13:28:07;;;;;;;0.98;0.98;;;18.30;78.70;;;;;;4169426;28;20052;-70
2022/10/08 13:30:48;;;;;;;;;;;18.40;78.30;;;;;;4179034;28;20074;-71
2022/10/08 13:33:34;;;;;;;0.00;0.00;;;18.30;78.20;;;;;;4188213;28;19931;-64
2022/10/08 13:36:21;;;;;;;3.85;2.00;;;18.30;77.70;;;;;;4191155;28;20051;-70
2022/10/08 13:39:02;;;;;;;0.00;0.00;;;18.30;77.30;;;;;;4174798;28;20047;-70
2022/10/08 13:41:50;;;;;;;0.00;0.00;;;18.30;76.90;;;;;;4191315;28;20078;-71
2022/10/08 13:44:33;;;;;;;0.00;0.00;;;18.30;76.80;;;;;;4187070;28;20129;-70
2022/10/08 13:47:17;;;;;;;0.10;0.10;;;18.30;76.50;;;;;;4181550;28;20052;-71
2022/10/08 13:50:00;;;;;;;0.00;0.00;;;18.30;76.20;;;;;;4182690;28;20190;-71
2022/10/08 13:52:45;;;;;;;0.00;0.00;;;18.40;76.30;;;;;;4180922;28;20056;-70
2022/10/08 13:55:27;;;;;;;0.00;0.00;;;18.40;76.80;;;;;;4190089;28;20113;-71
2022/10/08 13:58:10;;;;;;;0.00;0.00;;;18.40;75.50;;;;;;4190985;28;20075;-70
2022/10/08 14:00:50;;;;;;;0.05;0.05;;;18.40;75.50;;;;;;4190623;28;20102;-71
2022/10/08 14:03:31;;;;;;;10.07;2.08;;;18.50;75.30;;;;;;4191487;28;20055;-71
2022/10/08 14:06:14;;;;;;;0.00;0.00;;;18.50;75.40;;;;;;4191276;28;20510;-70
2022/10/08 14:08:55;;;;;;;0.00;0.00;;;18.50;75.00;;;;;;4173318;28;20068;-71
2022/10/08 14:11:36;;;;;;;0.00;0.00;;;18.50;74.60;;;;;;4191314;28;20113;-70
2022/10/08 14:14:17;;;;;;;0.00;0.00;;;18.50;74.90;;;;;;4190590;28;20186;-71
2022/10/08 14:16:57;;;;;;;1.35;1.17;;;18.60;74.20;;;;;;4178471;28;20039;-70